Keokuk, IA

5:24 AM CDT on March 27, 2015 (GMT -0500)
KEOIA | | Change Station
CLOSE
Current Station
Personal Weather Station
Location: Keokuk, IA
Elevation: 629 ft
Nearby Weather Stations

Elev 629 ft 40.40 °N, 91.38 °W | Updated 20 seconds ago

Overcast
Overcast
31.2 °F
Feels Like 31 °F
N
3.0
Wind Variable Wind from WNW
Gusts 8.0 mph

Today
High -- | Low -- °F
--% Chance of Precip.
Yesterday
High -- | Low -- °F
Precip. -- in
6:57 AM 7:24 PM
Waxing Crescent, 51% visible
Pressure 30.13 in
Visibility 10.0 miles
Clouds Overcast 5000 ft
Windchill 31 °F
Dew Point 22 °F
Humidity 69%
Rainfall 0.00 in
Snow Depth Not available.
UV 0 out of 12
Pollen 5.90 out of 12
Air Quality Not available.
Flu Activity Not available.
METAR KEOK 271015Z AUTO 34007KT 10SM OVC050 M01/M06 A3013 RMK AO2

More Conditions Fewer Conditions

Pressure 30.13 in
Visibility 10.0 miles
Clouds Overcast 5000 ft
Windchill 31 °F
Dew Point 22 °F
Humidity 69%
Rainfall 0.00 in
Snow Depth Not available.
UV 0 out of 12
Pollen 5.90 out of 12
Air Quality Not available.
Flu Activity Not available.
METAR KEOK 271015Z AUTO 34007KT 10SM OVC050 M01/M06 A3013 RMK AO2

More Conditions Fewer Conditions

10-Day Weather Forecast

Almanac

Astronomy

Mar. 27, 2015 Rise Set
Actual Time
Civil Twilight
Nautical Twilight
Astronomical Twilight
Moon
Length of Visible Light
Length of Day
Tomorrow will be .
, % of the Moon is Illuminated

Today's Extremes

State Highs State Lows

Community

WunderPhotos

Upload Photos

1,808,706 photos uploaded!

WunderBlogs® & News

Nearby

Air Quality

  Air Quality AQ Index Pollutant
Not available.

Snow Depth

Station Depth Elevation

Earthquake Activity

City Distance Mag. Time & Date
Minimum magnitude displayed is 2.5.

Coastal Water Temperatures

Place Temperature

Stations

Nearby Weather Stations

Station Location Temp. Windchill Dew Point Humidity Wind Precip. Elev Updated Type